Time;durP1;ratioP1;P1;durP2;ratioP2;P2;SDS_P1;SDS_P2;PMS_P1;PMS_P2;Temp;Humidity;BMP_temperature;BMP_pressure;BME280_temperature;BME280_humidity;BME280_pressure;Samples;Min_cycle;Max_cycle;Signal;HPM_P1;HPM_P2
2023/12/12 00:01:37;;;;;;;12.57;4.30;;;;;;;11.42;63.69;100748.53;4775988;29;124359;-72
2023/12/12 00:04:04;;;;;;;10.65;4.35;;;;;;;11.39;63.75;100743.38;4759891;29;114746;-72
2023/12/12 00:06:32;;;;;;;9.98;4.40;;;;;;;11.36;63.48;100748.84;4761258;29;114689;-71
2023/12/12 00:08:59;;;;;;;10.32;4.20;;;;;;;11.33;63.54;100754.31;4760244;29;125247;-72
2023/12/12 00:11:26;;;;;;;11.13;3.83;;;;;;;11.30;63.45;100760.63;4776377;29;124043;-71
2023/12/12 00:13:53;;;;;;;11.00;4.00;;;;;;;11.27;63.49;100759.91;4771192;29;114529;-71
2023/12/12 00:16:21;;;;;;;11.02;4.05;;;;;;;11.23;63.67;100758.34;4746744;29;113331;-72
2023/12/12 00:18:48;;;;;;;8.65;4.03;;;;;;;11.20;63.34;100758.50;4773215;29;124066;-72
2023/12/12 00:21:16;;;;;;;13.75;4.68;;;;;;;11.17;63.53;100759.50;4761493;29;123886;-72
2023/12/12 00:23:43;;;;;;;13.40;4.00;;;;;;;11.14;63.36;100764.09;4747534;29;114006;-71
2023/12/12 00:26:12;;;;;;;11.20;3.92;;;;;;;11.10;63.20;100764.25;4764583;29;114100;-71
2023/12/12 00:28:40;;;;;;;13.05;4.47;;;;;;;11.06;63.39;100762.69;4761934;29;125885;-71
2023/12/12 00:31:07;;;;;;;10.32;4.10;;;;;;;11.03;63.27;100762.81;4758597;29;125565;-71
2023/12/12 00:33:34;;;;;;;12.60;4.00;;;;;;;10.99;63.29;100761.25;4757293;29;115464;-71
2023/12/12 00:36:01;;;;;;;10.50;4.05;;;;;;;10.97;63.32;100762.28;4756960;29;116126;-71
2023/12/12 00:38:29;;;;;;;11.82;4.45;;;;;;;10.93;63.21;100766.84;4738289;29;125353;-71
2023/12/12 00:40:56;;;;;;;11.68;4.18;;;;;;;10.90;63.13;100767.00;4769551;29;124030;-71
2023/12/12 00:43:24;;;;;;;7.97;3.60;;;;;;;10.87;63.26;100764.50;4748812;29;115420;-72
2023/12/12 00:45:51;;;;;;;9.43;3.72;;;;;;;10.84;63.19;100762.00;4759540;29;113940;-71
2023/12/12 00:48:19;;;;;;;9.90;3.92;;;;;;;10.79;63.30;100756.91;4770901;29;124493;-71
2023/12/12 00:50:46;;;;;;;14.32;4.07;;;;;;;10.77;63.44;100765.84;4768517;29;123580;-72
2023/12/12 00:53:13;;;;;;;11.15;4.10;;;;;;;10.74;63.41;100768.63;4752885;29;114304;-71
2023/12/12 00:55:41;;;;;;;10.77;3.97;;;;;;;10.69;63.28;100763.56;4766141;29;114538;-71
2023/12/12 00:58:08;;;;;;;12.60;4.07;;;;;;;10.66;63.35;100764.59;4764396;29;124069;-71
2023/12/12 01:00:35;;;;;;;9.38;3.70;;;;;;;10.64;63.54;100755.84;4769834;29;124056;-72
2023/12/12 01:03:03;;;;;;;8.73;3.88;;;;;;;10.60;63.47;100754.25;4774497;29;114719;-72
2023/12/12 01:05:30;;;;;;;8.18;4.03;;;;;;;10.58;63.12;100756.13;4755633;29;113700;-71
2023/12/12 01:07:57;;;;;;;11.23;4.25;;;;;;;10.55;63.37;100761.56;4764527;29;124883;-72
2023/12/12 01:10:25;;;;;;;11.95;4.40;;;;;;;10.51;63.40;100752.91;4777803;29;123805;-72
2023/12/12 01:12:52;;;;;;;11.98;3.80;;;;;;;10.48;63.11;100749.53;4757620;29;114161;-72
2023/12/12 01:15:19;;;;;;;11.35;4.20;;;;;;;10.44;63.18;100748.81;4758279;29;115235;-71
2023/12/12 01:17:46;;;;;;;13.55;3.75;;;;;;;10.41;63.28;100748.09;4772108;29;123851;-71
2023/12/12 01:20:13;;;;;;;7.38;4.00;;;;;;;10.38;63.13;100753.53;4758466;29;125399;-71
2023/12/12 01:22:41;;;;;;;11.38;3.67;;;;;;;10.33;63.29;100757.25;4744993;29;114628;-71
2023/12/12 01:25:08;;;;;;;11.45;3.83;;;;;;;10.29;63.13;100749.50;4762945;29;114085;-71
2023/12/12 01:27:35;;;;;;;10.35;3.50;;;;;;;10.25;63.68;100754.06;4774802;29;124555;-71
2023/12/12 01:30:03;;;;;;;13.55;3.97;;;;;;;10.22;63.19;100748.91;4761323;29;123866;-71
2023/12/12 01:32:30;;;;;;;11.68;3.92;;;;;;;10.18;63.11;100757.91;4777677;29;114282;-72
2023/12/12 01:34:57;;;;;;;10.95;3.63;;;;;;;10.13;63.34;100749.31;4753191;29;113007;-71
2023/12/12 01:37:24;;;;;;;9.57;4.07;;;;;;;10.11;63.49;100745.88;4761686;29;124885;-71
2023/12/12 01:39:52;;;;;;;10.07;3.65;;;;;;;10.09;63.32;100737.16;4770818;29;124280;-71
2023/12/12 01:42:19;;;;;;;15.02;3.80;;;;;;;10.05;63.48;100735.56;4768222;29;115281;-71
2023/12/12 01:44:46;;;;;;;13.52;4.30;;;;;;;10.03;63.26;100732.13;4758892;29;114453;-72
2023/12/12 01:47:13;;;;;;;15.02;4.35;;;;;;;10.01;63.41;100724.25;4769668;29;125496;-71
2023/12/12 01:49:41;;;;;;;9.65;4.03;;;;;;;9.99;63.53;100719.97;4765833;29;123671;-71
2023/12/12 01:52:09;;;;;;;11.27;3.95;;;;;;;9.98;63.38;100715.59;4780219;29;114191;-71
2023/12/12 01:54:39;;;;;;;9.80;3.40;;;;;;;9.96;63.48;100714.81;4737230;29;115840;-71
2023/12/12 01:57:07;;;;;;;15.18;4.32;;;;;;;9.93;63.51;100715.81;4779744;29;124789;-71
2023/12/12 01:59:36;;;;;;;8.65;4.32;;;;;;;9.89;63.47;100715.09;4749873;29;125728;-71
2023/12/12 02:02:05;;;;;;;15.20;4.00;;;;;;;9.88;63.58;100717.81;4768517;29;115330;-72
2023/12/12 02:04:33;;;;;;;12.82;3.97;;;;;;;9.85;63.49;100726.75;4761195;29;115381;-72
2023/12/12 02:07:03;;;;;;;14.40;4.25;;;;;;;9.83;63.67;100720.66;4761098;29;124287;-71
2023/12/12 02:09:31;;;;;;;13.73;4.20;;;;;;;9.81;63.64;100722.47;4773533;29;123797;-71
2023/12/12 02:11:59;;;;;;;15.32;4.22;;;;;;;9.78;63.29;100722.63;4760560;29;115916;-71
2023/12/12 02:14:26;;;;;;;13.10;3.75;;;;;;;9.76;63.64;100719.22;4747622;29;116195;-71
2023/12/12 02:16:53;;;;;;;13.18;3.70;;;;;;;9.75;63.70;100717.47;4753892;29;123757;-71
2023/12/12 02:19:21;;;;;;;12.48;3.97;;;;;;;9.71;63.86;100721.19;4774587;29;124341;-71
2023/12/12 02:21:49;;;;;;;12.48;3.72;;;;;;;9.70;63.75;100714.16;4768478;29;114157;-71
2023/12/12 02:24:16;;;;;;;9.80;3.70;;;;;;;9.69;64.14;100715.94;4775921;29;113891;-71
2023/12/12 02:26:43;;;;;;;16.40;3.92;;;;;;;9.69;64.05;100723.03;4751510;29;125023;-71
2023/12/12 02:29:11;;;;;;;13.80;3.85;;;;;;;9.70;64.14;100727.38;4765078;29;124563;-72
2023/12/12 02:31:38;;;;;;;12.23;3.70;;;;;;;9.70;64.12;100724.75;4780300;29;114667;-71
2023/12/12 02:34:05;;;;;;;12.15;3.67;;;;;;;9.69;64.02;100723.88;4779882;29;113295;-71
2023/12/12 02:36:33;;;;;;;14.10;3.90;;;;;;;9.70;64.02;100724.75;4776800;29;123229;-71
2023/12/12 02:39:01;;;;;;;12.40;3.78;;;;;;;9.69;64.15;100723.03;4751961;29;125821;-71
2023/12/12 02:41:29;;;;;;;18.00;4.68;;;;;;;9.69;64.43;100718.59;4766881;29;115045;-71
2023/12/12 02:43:56;;;;;;;16.27;3.55;;;;;;;9.71;64.11;100715.91;4759021;29;114455;-71
2023/12/12 02:46:23;;;;;;;14.30;4.05;;;;;;;9.72;64.36;100717.63;4770246;29;124106;-71
2023/12/12 02:48:50;;;;;;;13.88;4.40;;;;;;;9.73;64.52;100724.63;4774644;29;124085;-71
2023/12/12 02:51:18;;;;;;;11.43;3.83;;;;;;;9.72;64.27;100720.28;4763657;29;114230;-71
2023/12/12 02:53:45;;;;;;;12.75;4.00;;;;;;;9.72;64.10;100712.34;4763288;29;115778;-71
2023/12/12 02:56:12;;;;;;;14.43;3.97;;;;;;;9.71;64.32;100710.59;4778026;29;127804;-71
2023/12/12 02:58:39;;;;;;;11.73;3.90;;;;;;;9.71;64.24;100713.25;4762545;29;124274;-71
2023/12/12 03:01:11;;;;;;;12.23;3.80;;;;;;;9.70;64.19;100714.16;4758620;29;114718;-72
2023/12/12 03:03:39;;;;;;;16.65;4.40;;;;;;;9.70;64.29;100719.44;4776186;29;117190;-71
2023/12/12 03:06:09;;;;;;;9.98;3.97;;;;;;;9.69;64.38;100712.47;4762935;29;124994;-71
2023/12/12 03:08:36;;;;;;;16.95;3.92;;;;;;;9.69;64.41;100712.47;4761909;29;125536;-71
2023/12/12 03:11:04;;;;;;;16.52;3.75;;;;;;;9.68;64.35;100713.38;4768994;29;115133;-71
2023/12/12 03:13:32;;;;;;;13.55;3.88;;;;;;;9.67;64.47;100714.31;4759788;29;115334;-71
2023/12/12 03:16:00;;;;;;;20.27;3.83;;;;;;;9.67;64.44;100709.03;4775774;29;123897;-71
2023/12/12 03:18:27;;;;;;;15.90;3.92;;;;;;;9.67;64.77;100703.75;4757908;29;123910;-72
2023/12/12 03:20:55;;;;;;;14.68;3.70;;;;;;;9.66;64.67;100702.00;4755978;29;116531;-71
2023/12/12 03:23:22;;;;;;;16.27;3.80;;;;;;;9.67;64.78;100703.75;4774939;29;113693;-71
2023/12/12 03:25:49;;;;;;;18.23;3.83;;;;;;;9.67;64.86;100699.28;4757466;29;125686;-71
2023/12/12 03:28:17;;;;;;;19.70;4.05;;;;;;;9.70;65.11;100704.47;4766043;29;124518;-71
2023/12/12 03:30:44;;;;;;;15.73;4.07;;;;;;;9.72;65.02;100701.75;4780545;29;114607;-71
2023/12/12 03:33:12;;;;;;;22.55;4.32;;;;;;;9.77;65.17;100706.84;4761543;29;115668;-71
2023/12/12 03:35:39;;;;;;;22.17;4.60;;;;;;;9.80;65.16;100704.91;4768178;29;123991;-71
2023/12/12 03:38:06;;;;;;;21.05;4.47;;;;;;;9.83;65.60;100694.22;4777746;29;125483;-71
2023/12/12 03:40:33;;;;;;;24.85;4.13;;;;;;;9.89;65.80;100698.38;4755065;29;114370;-71
2023/12/12 03:43:00;;;;;;;22.58;4.40;;;;;;;9.93;65.74;100690.22;4773752;29;114481;-71
2023/12/12 03:45:27;;;;;;;23.30;4.32;;;;;;;9.98;65.47;100686.50;4777438;29;124092;-71
2023/12/12 03:47:55;;;;;;;16.55;4.28;;;;;;;10.01;65.73;100683.72;4767843;29;124189;-71
2023/12/12 03:50:22;;;;;;;25.88;4.18;;;;;;;10.03;65.47;100684.50;4752672;29;115328;-71
2023/12/12 03:52:49;;;;;;;18.15;4.25;;;;;;;10.06;65.49;100679.09;4753968;29;115307;-71
2023/12/12 03:55:16;;;;;;;16.90;4.35;;;;;;;10.07;65.60;100681.63;4776152;29;124040;-71
2023/12/12 03:57:44;;;;;;;21.33;4.13;;;;;;;10.09;65.63;100674.50;4752968;29;124221;-71
2023/12/12 04:00:11;;;;;;;23.20;3.88;;;;;;;10.12;65.95;100678.81;4773423;29;114298;-71
2023/12/12 04:02:40;;;;;;;20.80;4.38;;;;;;;10.15;65.71;100673.34;4760221;29;113994;-71
2023/12/12 04:05:09;;;;;;;15.35;4.00;;;;;;;10.16;65.82;100669.78;4778116;29;123637;-71
2023/12/12 04:07:38;;;;;;;27.83;4.38;;;;;;;10.20;65.72;100666.06;4750079;29;125080;-71
2023/12/12 04:10:09;;;;;;;19.38;3.97;;;;;;;10.21;65.63;100667.78;4772519;29;114496;-71
2023/12/12 04:12:36;;;;;;;20.55;4.00;;;;;;;10.24;65.62;100656.19;4774472;29;113439;-71
2023/12/12 04:15:04;;;;;;;23.05;4.80;;;;;;;10.25;65.78;100658.78;4747066;29;124793;-71
2023/12/12 04:17:31;;;;;;;25.15;4.15;;;;;;;10.27;65.74;100656.91;4776077;29;123576;-71
2023/12/12 04:19:59;;;;;;;28.17;4.15;;;;;;;10.28;65.73;100652.47;4759268;29;115111;-72
2023/12/12 04:22:26;;;;;;;28.55;4.20;;;;;;;10.29;65.60;100660.34;4768230;29;113575;-71
2023/12/12 04:24:53;;;;;;;24.60;4.30;;;;;;;10.31;65.61;100661.16;4753087;29;123952;-71
2023/12/12 04:27:21;;;;;;;23.45;4.10;;;;;;;10.32;65.80;100660.25;4765168;29;124932;-71
2023/12/12 04:29:48;;;;;;;26.30;4.07;;;;;;;10.34;65.78;100662.81;4756507;29;115939;-71
2023/12/12 04:32:15;;;;;;;24.55;4.30;;;;;;;10.36;65.82;100649.50;4777822;29;113493;-71
2023/12/12 04:34:45;;;;;;;24.17;4.68;;;;;;;10.38;65.97;100647.63;4771888;29;124204;-71
2023/12/12 04:37:12;;;;;;;19.67;3.95;;;;;;;10.38;65.67;100648.50;4780411;29;125780;-71
2023/12/12 04:39:40;;;;;;;28.95;4.43;;;;;;;10.40;65.76;100640.50;4776974;29;115027;-71
2023/12/12 04:42:07;;;;;;;20.98;4.10;;;;;;;10.41;65.79;100642.19;4757392;29;115941;-71
2023/12/12 04:44:34;;;;;;;27.83;4.65;;;;;;;10.38;65.56;100642.34;4759531;29;124702;-71
2023/12/12 04:47:01;;;;;;;23.88;3.97;;;;;;;10.35;65.58;100637.19;4765504;29;125111;-71
2023/12/12 04:49:28;;;;;;;25.60;4.55;;;;;;;10.35;65.66;100637.19;4761061;29;114589;-71
2023/12/12 04:51:56;;;;;;;20.27;4.30;;;;;;;10.31;65.43;100637.34;4776154;29;114094;-71
2023/12/12 04:54:23;;;;;;;21.50;4.13;;;;;;;10.28;65.30;100637.47;4774859;29;124110;-71
2023/12/12 04:56:50;;;;;;;24.92;4.03;;;;;;;10.24;65.23;100635.88;4761238;29;124929;-71
2023/12/12 04:59:17;;;;;;;22.60;4.93;;;;;;;10.20;65.54;100639.59;4773066;29;114579;-71
2023/12/12 05:01:45;;;;;;;23.88;4.15;;;;;;;10.18;65.27;100641.47;4780489;29;114281;-71
2023/12/12 05:04:12;;;;;;;26.15;4.70;;;;;;;10.14;65.31;100634.59;4755817;29;123803;-71
2023/12/12 05:06:39;;;;;;;32.75;4.60;;;;;;;10.12;65.42;100625.88;4777096;29;123323;-71
2023/12/12 05:09:07;;;;;;;23.17;4.28;;;;;;;10.11;65.35;100621.50;4776489;29;114779;-71
2023/12/12 05:11:36;;;;;;;22.55;4.13;;;;;;;10.07;65.58;100602.25;4755170;29;114571;-71
2023/12/12 05:14:06;;;;;;;28.63;4.53;;;;;;;10.06;65.44;100605.00;4768341;29;125682;-71
2023/12/12 05:16:33;;;;;;;23.60;4.25;;;;;;;10.05;65.57;100608.56;4756793;29;125331;-72
2023/12/12 05:19:00;;;;;;;26.77;4.82;;;;;;;10.03;65.65;100605.13;4760669;29;112272;-71
2023/12/12 05:21:28;;;;;;;25.10;4.63;;;;;;;10.02;65.76;100606.06;4763909;29;114098;-71
2023/12/12 05:23:56;;;;;;;21.75;4.63;;;;;;;10.02;65.74;100614.00;4762864;29;123982;-71
2023/12/12 05:26:23;;;;;;;29.92;5.40;;;;;;;10.01;65.66;100599.06;4759504;29;125088;-71
2023/12/12 05:28:50;;;;;;;28.00;5.75;;;;;;;10.02;65.72;100603.41;4749411;29;115846;-71
2023/12/12 05:31:17;;;;;;;27.73;5.40;;;;;;;10.02;65.82;100603.41;4761997;29;115342;-71
2023/12/12 05:33:46;;;;;;;23.05;4.97;;;;;;;10.04;65.95;100598.91;4761195;29;124004;-71
2023/12/12 05:36:14;;;;;;;26.80;4.78;;;;;;;10.05;65.72;100592.69;4752795;29;124654;-71
2023/12/12 05:38:41;;;;;;;28.00;5.07;;;;;;;10.06;65.98;100594.41;4772213;29;114277;-71
2023/12/12 05:41:08;;;;;;;21.88;4.63;;;;;;;10.07;65.83;100590.81;4768748;29;114054;-71
2023/12/12 05:43:35;;;;;;;30.13;5.05;;;;;;;10.09;66.12;100595.09;4756647;29;123005;-71
2023/12/12 05:46:04;;;;;;;32.30;5.07;;;;;;;10.11;66.16;100597.69;4764258;29;124297;-71
2023/12/12 05:48:32;;;;;;;26.25;4.97;;;;;;;10.11;66.11;100598.56;4763684;29;115063;-71
2023/12/12 05:50:59;;;;;;;29.20;5.43;;;;;;;10.12;66.15;100604.72;4758509;29;116583;-71
2023/12/12 05:53:26;;;;;;;25.55;5.40;;;;;;;10.14;66.23;100603.69;4764590;29;123507;-71
2023/12/12 05:55:57;;;;;;;22.80;4.60;;;;;;;10.18;66.41;100596.47;4770111;29;124243;-71
2023/12/12 05:58:25;;;;;;;29.17;5.25;;;;;;;10.20;66.22;100591.09;4771789;29;115240;-72
2023/12/12 06:00:52;;;;;;;25.33;4.82;;;;;;;10.21;66.23;100593.69;4749759;29;114408;-71
2023/12/12 06:03:20;;;;;;;24.02;4.63;;;;;;;10.23;66.11;100607.72;4766449;29;124061;-72
2023/12/12 06:05:47;;;;;;;22.52;4.68;;;;;;;10.25;66.41;100600.53;4765671;29;123619;-71
2023/12/12 06:08:15;;;;;;;24.70;4.45;;;;;;;10.28;66.23;100595.13;4755125;29;114485;-71
2023/12/12 06:10:42;;;;;;;24.13;4.97;;;;;;;10.30;66.32;100593.28;4738798;29;112781;-71
2023/12/12 06:13:10;;;;;;;26.67;5.05;;;;;;;10.32;66.36;100596.72;4762131;29;124085;-71
2023/12/12 06:15:37;;;;;;;24.00;4.57;;;;;;;10.33;66.21;100595.75;4767228;29;123770;-71
2023/12/12 06:18:05;;;;;;;30.92;5.05;;;;;;;10.35;66.28;100594.84;4771434;29;115369;-71
2023/12/12 06:20:35;;;;;;;27.10;5.15;;;;;;;10.37;66.34;100592.97;4768907;29;115920;-71
2023/12/12 06:23:02;;;;;;;21.48;4.55;;;;;;;10.41;66.33;100594.53;4767470;29;123697;-71
2023/12/12 06:25:29;;;;;;;26.65;4.55;;;;;;;10.43;66.41;100592.69;4760043;29;122846;-71
2023/12/12 06:27:57;;;;;;;28.08;5.13;;;;;;;10.45;66.52;100585.50;4763085;29;114453;-71
2023/12/12 06:30:24;;;;;;;30.77;5.50;;;;;;;10.46;66.50;100577.50;4761034;29;113633;-71
2023/12/12 06:32:51;;;;;;;30.95;5.10;;;;;;;10.48;66.61;100574.78;4772694;29;124685;-71
2023/12/12 06:35:18;;;;;;;27.45;6.65;;;;;;;10.51;66.50;100572.00;4774310;29;124357;-71
2023/12/12 06:37:46;;;;;;;24.27;4.85;;;;;;;10.52;66.21;100573.69;4773090;29;113719;-71
2023/12/12 06:40:13;;;;;;;28.67;6.45;;;;;;;10.52;66.28;100576.34;4777374;29;115316;-71
2023/12/12 06:42:43;;;;;;;30.33;6.85;;;;;;;10.54;66.39;100574.47;4773366;29;124876;-71
2023/12/12 06:45:11;;;;;;;27.35;7.07;;;;;;;10.55;66.43;100565.63;4770559;29;124370;-71
2023/12/12 06:47:38;;;;;;;23.23;5.68;;;;;;;10.57;66.33;100571.69;4736181;29;114010;-71
2023/12/12 06:50:06;;;;;;;19.73;5.20;;;;;;;10.59;66.46;100566.31;4747081;29;115481;-71
2023/12/12 06:52:34;;;;;;;27.38;5.50;;;;;;;10.59;66.24;100564.53;4773300;29;124439;-71
2023/12/12 06:55:01;;;;;;;24.23;5.50;;;;;;;10.61;66.11;100560.00;4754591;29;125418;-71
2023/12/12 06:57:30;;;;;;;24.40;5.53;;;;;;;10.60;66.27;100558.28;4763459;29;114356;-71
2023/12/12 06:59:58;;;;;;;25.30;6.28;;;;;;;10.60;66.37;100552.97;4780333;29;114007;-71
2023/12/12 07:02:26;;;;;;;28.88;6.22;;;;;;;10.59;66.09;100556.56;4774126;29;123899;-71
2023/12/12 07:04:53;;;;;;;23.17;6.65;;;;;;;10.59;66.15;100551.28;4778336;29;123678;-71
2023/12/12 07:07:20;;;;;;;30.92;7.15;;;;;;;10.60;66.12;100547.69;4753242;29;115586;-71
2023/12/12 07:09:48;;;;;;;30.05;7.32;;;;;;;10.60;66.24;100546.84;4759643;29;115162;-71
2023/12/12 07:12:26;;;;;;;32.97;7.53;;;;;;;10.59;66.21;100535.41;4754470;29;123651;-71
2023/12/12 07:15:12;;;;;;;29.13;8.43;;;;;;;10.58;66.24;100531.00;4747177;29;125525;-71
2023/12/12 07:17:40;;;;;;;34.28;8.02;;;;;;;10.57;66.15;100521.38;4741317;29;115387;-71
2023/12/12 07:20:11;;;;;;;34.38;9.23;;;;;;;10.57;66.27;100526.66;4770012;29;114339;-71
2023/12/12 07:22:39;;;;;;;23.17;5.75;;;;;;;10.56;66.36;100514.34;4778456;29;124384;-71
2023/12/12 07:25:08;;;;;;;20.67;5.45;;;;;;;10.56;66.42;100519.66;4760195;29;123023;-71
2023/12/12 07:27:35;;;;;;;24.75;5.75;;;;;;;10.56;66.13;100522.28;4761117;29;115376;-71
2023/12/12 07:30:03;;;;;;;15.15;4.80;;;;;;;10.57;66.17;100518.72;4761110;29;114298;-72
2023/12/12 07:32:30;;;;;;;25.98;5.28;;;;;;;10.57;66.13;100521.38;4742641;29;124540;-71
2023/12/12 07:34:58;;;;;;;18.40;5.05;;;;;;;10.57;66.15;100516.06;4777159;29;123955;-71
2023/12/12 07:37:25;;;;;;;20.77;4.60;;;;;;;10.57;66.26;100526.66;4761126;29;114193;-71
2023/12/12 07:39:52;;;;;;;19.52;4.97;;;;;;;10.56;65.93;100514.34;4777089;29;113899;-71
2023/12/12 07:42:19;;;;;;;12.95;3.65;;;;;;;10.58;66.10;100515.13;4750029;29;124801;-72
2023/12/12 07:44:46;;;;;;;21.38;4.00;;;;;;;10.59;66.04;100508.06;4762260;29;123712;-71
2023/12/12 07:47:14;;;;;;;16.33;3.90;;;;;;;10.59;66.14;100508.91;4761940;29;114482;-71
2023/12/12 07:49:41;;;;;;;20.70;4.15;;;;;;;10.60;66.13;100504.47;4759799;29;115752;-71
2023/12/12 07:52:08;;;;;;;16.20;3.22;;;;;;;10.59;66.16;100498.31;4769940;29;125035;-72
2023/12/12 07:54:37;;;;;;;16.05;3.70;;;;;;;10.60;66.16;100494.72;4762083;29;126049;-71
2023/12/12 07:57:05;;;;;;;16.30;3.63;;;;;;;10.60;65.98;100489.41;4746497;29;116231;-71
2023/12/12 07:59:32;;;;;;;12.70;3.60;;;;;;;10.58;66.09;100496.59;4763103;29;113757;-71
2023/12/12 08:02:00;;;;;;;16.55;3.88;;;;;;;10.58;66.14;100498.38;4772724;29;124379;-72
2023/12/12 08:04:27;;;;;;;13.82;3.58;;;;;;;10.58;66.14;100493.09;4769478;29;124314;-72
2023/12/12 08:06:55;;;;;;;13.63;3.30;;;;;;;10.59;66.14;100489.53;4770160;29;114993;-72
2023/12/12 08:09:23;;;;;;;12.38;3.42;;;;;;;10.59;66.30;100487.72;4776661;29;114366;-72
2023/12/12 08:11:51;;;;;;;16.67;3.65;;;;;;;10.59;66.11;100481.56;4775327;29;126438;-72
2023/12/12 08:14:19;;;;;;;19.48;3.75;;;;;;;10.61;66.13;100480.56;4766938;29;123906;-72
2023/12/12 08:16:46;;;;;;;11.82;3.28;;;;;;;10.64;66.41;100483.06;4778261;29;114216;-72
2023/12/12 08:19:15;;;;;;;11.68;3.35;;;;;;;10.66;66.10;100473.25;4754872;29;113853;-72
2023/12/12 08:21:43;;;;;;;12.77;3.28;;;;;;;10.69;66.20;100473.06;4776742;29;123715;-72
2023/12/12 08:24:10;;;;;;;15.32;4.07;;;;;;;10.72;66.23;100472.06;4779807;29;124278;-72
2023/12/12 08:26:44;;;;;;;14.88;3.25;;;;;;;10.75;66.30;100471.03;4758393;29;114504;-72
2023/12/12 08:29:14;;;;;;;19.23;3.10;;;;;;;10.79;66.20;100467.28;4763761;29;114381;-72
2023/12/12 08:31:42;;;;;;;16.33;3.22;;;;;;;10.82;66.23;100477.75;4774686;29;125848;-72
2023/12/12 08:34:09;;;;;;;13.18;3.13;;;;;;;10.86;66.34;100469.53;4732567;29;126235;-72
2023/12/12 08:36:36;;;;;;;13.90;3.28;;;;;;;10.89;66.44;100463.25;4759804;29;115137;-72
2023/12/12 08:39:04;;;;;;;15.07;3.25;;;;;;;10.92;66.30;100457.75;4764948;29;114451;-72
2023/12/12 08:41:31;;;;;;;12.77;3.10;;;;;;;10.96;66.36;100454.00;4761997;29;123642;-72
2023/12/12 08:43:59;;;;;;;20.50;3.88;;;;;;;11.00;66.51;100449.41;4762993;29;123972;-72
2023/12/12 08:46:27;;;;;;;15.07;3.05;;;;;;;11.03;66.38;100460.69;4747554;29;117229;-72
2023/12/12 08:48:55;;;;;;;13.23;3.25;;;;;;;11.07;66.45;100451.66;4770225;29;116398;-72
2023/12/12 08:51:24;;;;;;;16.08;3.22;;;;;;;11.10;66.38;100451.50;4778700;29;124818;-72
2023/12/12 08:53:51;;;;;;;11.00;2.72;;;;;;;11.16;66.44;100441.50;4778440;29;124486;-72
2023/12/12 08:56:18;;;;;;;12.00;2.88;;;;;;;11.19;66.34;100438.66;4758178;29;114347;-72
2023/12/12 08:58:49;;;;;;;14.45;3.53;;;;;;;11.22;66.53;100443.81;4772149;29;113822;-72
2023/12/12 09:01:16;;;;;;;13.35;3.28;;;;;;;11.26;66.39;100437.41;4752756;29;124807;-72
2023/12/12 09:03:45;;;;;;;11.60;3.45;;;;;;;11.30;66.48;100433.63;4756826;29;123974;-72
2023/12/12 09:06:12;;;;;;;13.18;3.40;;;;;;;11.34;66.46;100432.56;4764803;29;114531;-72
2023/12/12 09:08:42;;;;;;;17.13;3.42;;;;;;;11.40;66.58;100442.81;4771171;29;116352;-72
2023/12/12 09:11:10;;;;;;;11.45;3.30;;;;;;;11.44;66.39;100427.59;4759821;29;124031;-72
2023/12/12 09:13:42;;;;;;;12.52;3.30;;;;;;;11.47;66.33;100428.28;4756377;29;125480;-72
2023/12/12 09:16:10;;;;;;;13.48;3.28;;;;;;;11.52;66.22;100420.06;4781832;29;114083;-72
2023/12/12 09:18:37;;;;;;;23.67;3.40;;;;;;;11.56;66.26;100420.75;4762094;29;115748;-73
2023/12/12 09:21:06;;;;;;;10.95;3.08;;;;;;;11.59;66.17;100409.97;4762845;29;124180;-73
2023/12/12 09:23:34;;;;;;;13.70;3.22;;;;;;;11.61;66.07;100408.09;4779686;29;124857;-73
2023/12/12 09:26:02;;;;;;;15.20;2.90;;;;;;;11.63;66.30;100400.91;4759146;29;114879;-73
2023/12/12 09:28:29;;;;;;;14.57;2.80;;;;;;;11.64;66.32;100397.28;4777630;29;114180;-75
2023/12/12 09:30:56;;;;;;;14.80;3.35;;;;;;;11.65;66.02;100399.84;4771136;29;124891;-73
2023/12/12 09:33:23;;;;;;;14.07;3.08;;;;;;;11.67;66.09;100397.13;4755270;29;123675;-73
2023/12/12 09:35:51;;;;;;;15.63;3.30;;;;;;;11.71;66.05;100396.00;4764348;29;114730;-75
2023/12/12 09:38:18;;;;;;;8.88;2.67;;;;;;;11.75;66.28;100384.28;4746862;29;114286;-72
2023/12/12 09:40:45;;;;;;;12.70;3.33;;;;;;;11.79;66.15;100377.88;4762623;29;124055;-74
2023/12/12 09:43:14;;;;;;;14.40;2.88;;;;;;;11.85;66.39;100369.53;4760744;29;123918;-73
2023/12/12 09:45:46;;;;;;;14.15;2.92;;;;;;;11.91;66.39;100378.13;4764037;29;114715;-72
2023/12/12 09:48:14;;;;;;;13.25;3.13;;;;;;;11.96;66.21;100370.75;4764024;29;113059;-72
2023/12/12 09:50:42;;;;;;;18.30;3.38;;;;;;;12.01;66.43;100368.69;4757598;29;124402;-72
2023/12/12 09:53:11;;;;;;;15.93;3.47;;;;;;;12.08;66.42;100360.25;4774995;29;123246;-73
2023/12/12 09:55:40;;;;;;;17.23;3.20;;;;;;;12.16;66.47;100346.53;4774629;29;114285;-73
2023/12/12 09:58:07;;;;;;;21.75;4.47;;;;;;;12.25;66.38;100356.59;4765285;29;112229;-73
2023/12/12 10:00:35;;;;;;;20.75;4.38;;;;;;;12.33;66.42;100347.31;4771931;29;124072;-72
2023/12/12 10:03:05;;;;;;;13.15;3.45;;;;;;;12.41;66.41;100350.38;4766590;29;124493;-73
2023/12/12 10:05:35;;;;;;;15.43;4.07;;;;;;;12.49;66.42;100341.94;4774416;29;113236;-72
2023/12/12 10:08:04;;;;;;;13.05;3.47;;;;;;;12.58;66.42;100344.91;4759033;29;115855;-73
2023/12/12 10:10:43;;;;;;;19.27;3.92;;;;;;;12.66;66.19;100337.31;4755398;29;123063;-73
2023/12/12 10:13:11;;;;;;;15.95;3.53;;;;;;;12.74;66.16;100330.66;4766039;29;125013;-73
2023/12/12 10:15:38;;;;;;;20.80;4.38;;;;;;;12.80;65.89;100322.28;4746628;29;115139;-73
2023/12/12 10:18:05;;;;;;;15.27;3.25;;;;;;;12.86;66.10;100313.94;4751822;29;113841;-73
2023/12/12 10:20:35;;;;;;;15.25;3.60;;;;;;;12.92;65.86;100313.56;4761164;29;124056;-73
2023/12/12 10:23:04;;;;;;;14.23;3.13;;;;;;;12.95;65.67;100300.06;4762311;29;125242;-73
2023/12/12 10:25:34;;;;;;;13.23;3.53;;;;;;;12.99;65.71;100296.25;4767905;29;115187;-73
2023/12/12 10:28:01;;;;;;;16.70;3.53;;;;;;;13.04;65.55;100291.50;4760244;29;115097;-73
2023/12/12 10:30:29;;;;;;;13.25;3.10;;;;;;;13.11;65.54;100291.09;4763964;29;124700;-73
2023/12/12 10:32:56;;;;;;;12.38;3.17;;;;;;;13.17;65.70;100285.41;4779775;29;123826;-73
2023/12/12 10:35:25;;;;;;;15.57;3.30;;;;;;;13.23;65.69;100279.69;4780909;29;114229;-73
2023/12/12 10:37:55;;;;;;;15.43;3.58;;;;;;;13.29;65.41;100273.94;4772788;29;113583;-73
2023/12/12 10:40:24;;;;;;;12.25;3.47;;;;;;;13.35;65.46;100276.22;4774125;29;125299;-72
2023/12/12 10:42:51;;;;;;;15.55;3.58;;;;;;;13.43;65.32;100271.28;4753469;29;124368;-73
2023/12/12 10:45:20;;;;;;;16.52;3.63;;;;;;;13.49;65.29;100274.50;4771525;29;114028;-72
2023/12/12 10:47:50;;;;;;;14.55;3.10;;;;;;;13.55;65.22;100274.91;4781355;29;114210;-73
2023/12/12 10:50:18;;;;;;;10.73;2.17;;;;;;;13.60;65.18;100256.00;4764205;29;123335;-73
2023/12/12 10:52:48;;;;;;;7.18;2.17;;;;;;;13.66;65.28;100255.59;4763906;29;124048;-73
2023/12/12 10:55:19;;;;;;;8.90;2.10;;;;;;;13.74;65.40;100250.59;4767451;29;114521;-73
2023/12/12 10:57:47;;;;;;;6.50;1.90;;;;;;;13.83;65.49;100257.09;4756563;29;114219;-73
2023/12/12 11:00:17;;;;;;;7.43;2.00;;;;;;;13.92;65.30;100250.28;4763191;29;125541;-73
2023/12/12 11:02:47;;;;;;;7.78;1.70;;;;;;;14.01;65.28;100244.31;4762162;29;124374;-72
2023/12/12 11:05:16;;;;;;;4.65;1.77;;;;;;;14.11;65.42;100234.75;4773658;29;115843;-73
2023/12/12 11:07:47;;;;;;;7.70;1.75;;;;;;;14.21;65.59;100233.13;4754678;29;114119;-73
2023/12/12 11:10:18;;;;;;;9.70;2.00;;;;;;;14.33;65.53;100227.91;4749464;29;124085;-73
2023/12/12 11:12:55;;;;;;;7.55;1.80;;;;;;;14.44;65.25;100228.00;4765655;29;124226;-73
2023/12/12 11:15:24;;;;;;;10.40;1.60;;;;;;;14.55;65.51;100222.75;4768534;29;115574;-73